Wetterdaten: Woche 21.12.15 - 27.12.15 (KW52)
Datum Zeit Temperatur Luftfeuchte Luftdruck Niederschlag Windrichtung Sonnenschein Solar Wind
21.12.2015 00:00 0,5 C 97 % 1025,5 hPa 0,0 l/m S 0,00 h 0 W/m 1,6 km/h (1 Bft)
21.12.2015 01:00 1,1 C 98 % 1025,7 hPa 0,0 l/m S 0,00 h 0 W/m 3,2 km/h (1 Bft)
21.12.2015 02:00 1,3 C 98 % 1025,9 hPa 0,0 l/m S 0,00 h 0 W/m 3,7 km/h (1 Bft)
21.12.2015 03:00 1,8 C 99 % 1026,0 hPa 0,0 l/m S-SW 0,00 h 0 W/m 5,8 km/h (2 Bft)
21.12.2015 04:00 2,6 C 99 % 1026,2 hPa 0,0 l/m S 0,00 h 0 W/m 8,7 km/h (2 Bft)
21.12.2015 05:00 3,2 C 99 % 1026,2 hPa 0,0 l/m S-SW 0,00 h 0 W/m 7,1 km/h (2 Bft)
21.12.2015 06:00 3,9 C 99 % 1026,5 hPa 0,0 l/m S-SW 0,00 h 0 W/m 13,7 km/h (3 Bft)
21.12.2015 07:00 3,3 C 99 % 1026,7 hPa 0,0 l/m S-SW 0,00 h 0 W/m 13,8 km/h (3 Bft)
21.12.2015 08:00 5,0 C 100 % 1027,0 hPa 0,0 l/m SW 0,00 h 6 W/m 15,6 km/h (3 Bft)
21.12.2015 09:00 5,9 C 100 % 1027,7 hPa 0,2 l/m SW 0,00 h 7 W/m 16,4 km/h (3 Bft)
21.12.2015 10:00 6,8 C 98 % 1029,0 hPa 0,6 l/m NW 0,00 h 20 W/m 11,4 km/h (2 Bft)
21.12.2015 11:00 6,4 C 98 % 1029,4 hPa 0,4 l/m NW 0,00 h 32 W/m 3,9 km/h (1 Bft)
21.12.2015 12:00 6,6 C 98 % 1029,3 hPa 0,4 l/m SW 0,00 h 40 W/m 8,4 km/h (2 Bft)
21.12.2015 13:00 6,5 C 99 % 1029,0 hPa 0,0 l/m SW 0,00 h 26 W/m 14,6 km/h (3 Bft)
21.12.2015 14:00 6,6 C 99 % 1028,8 hPa 0,0 l/m W-SW 0,00 h 33 W/m 15,7 km/h (3 Bft)
21.12.2015 15:00 6,9 C 98 % 1028,9 hPa 0,0 l/m W-SW 0,25 h 53 W/m 17,3 km/h (3 Bft)
21.12.2015 16:00 6,7 C 96 % 1028,9 hPa 0,0 l/m SW 0,00 h 8 W/m 11,9 km/h (2 Bft)
21.12.2015 17:00 6,2 C 96 % 1029,2 hPa 0,0 l/m W-SW 0,00 h 0 W/m 11,3 km/h (2 Bft)
21.12.2015 18:00 6,0 C 96 % 1029,3 hPa 0,0 l/m W-SW 0,00 h 0 W/m 10,3 km/h (2 Bft)
21.12.2015 19:00 6,3 C 96 % 1029,6 hPa 0,0 l/m W-SW 0,00 h 0 W/m 14,4 km/h (3 Bft)
21.12.2015 20:00 5,7 C 96 % 1029,7 hPa 0,2 l/m SW 0,00 h 0 W/m 13,0 km/h (3 Bft)
21.12.2015 21:00 5,4 C 97 % 1030,0 hPa 0,0 l/m SW 0,00 h 0 W/m 11,4 km/h (2 Bft)
21.12.2015 22:00 5,1 C 97 % 1030,3 hPa 0,0 l/m SW 0,00 h 0 W/m 9,9 km/h (2 Bft)
21.12.2015 23:00 4,4 C 97 % 1030,7 hPa 0,0 l/m SW 0,00 h 0 W/m 10,2 km/h (2 Bft)
22.12.2015 00:00 4,1 C 98 % 1030,6 hPa 0,0 l/m SW 0,00 h 0 W/m 11,0 km/h (2 Bft)
22.12.2015 01:00 5,4 C 99 % 1030,6 hPa 0,0 l/m SW 0,00 h 0 W/m 11,7 km/h (2 Bft)
22.12.2015 02:00 6,3 C 97 % 1030,6 hPa 0,0 l/m SW 0,00 h 0 W/m 16,6 km/h (3 Bft)
22.12.2015 03:00 6,9 C 93 % 1030,7 hPa 0,0 l/m SW 0,00 h 0 W/m 16,2 km/h (3 Bft)
22.12.2015 04:00 6,4 C 96 % 1030,5 hPa 0,0 l/m SW 0,00 h 0 W/m 12,8 km/h (3 Bft)
22.12.2015 05:00 6,2 C 96 % 1030,4 hPa 0,0 l/m SW 0,00 h 0 W/m 11,9 km/h (2 Bft)
22.12.2015 06:00 6,1 C 96 % 1030,1 hPa 0,0 l/m SW 0,00 h 0 W/m 14,6 km/h (3 Bft)
22.12.2015 07:00 6,6 C 94 % 1030,3 hPa 0,0 l/m SW 0,00 h 0 W/m 11,4 km/h (2 Bft)
22.12.2015 08:00 5,5 C 94 % 1030,8 hPa 0,0 l/m SW 0,00 h 13 W/m 5,8 km/h (1 Bft)
22.12.2015 09:00 4,8 C 96 % 1031,0 hPa 0,0 l/m SW 0,00 h 28 W/m 7,5 km/h (2 Bft)
22.12.2015 10:00 6,6 C 97 % 1031,0 hPa 0,0 l/m S-SW 0,58 h 131 W/m 13,2 km/h (3 Bft)
22.12.2015 11:00 8,6 C 94 % 1030,8 hPa 0,0 l/m S-SW 0,75 h 201 W/m 12,0 km/h (2 Bft)
22.12.2015 12:00 10,3 C 86 % 1030,1 hPa 0,0 l/m SW 1,00 h 282 W/m 16,6 km/h (3 Bft)
22.12.2015 13:00 11,2 C 79 % 1029,3 hPa 0,0 l/m SW 1,00 h 283 W/m 18,4 km/h (3 Bft)
22.12.2015 14:00 11,8 C 75 % 1028,9 hPa 0,0 l/m SW 0,92 h 191 W/m 13,3 km/h (3 Bft)
22.12.2015 15:00 11,0 C 78 % 1028,7 hPa 0,0 l/m SW 0,25 h 54 W/m 5,4 km/h (1 Bft)
22.12.2015 16:00 9,2 C 83 % 1028,4 hPa 0,0 l/m SW 0,00 h 11 W/m 3,3 km/h (1 Bft)
22.12.2015 17:00 7,6 C 87 % 1028,3 hPa 0,0 l/m N 0,00 h 0 W/m 0,0 km/h (0 Bft)
22.12.2015 18:00 6,5 C 90 % 1028,4 hPa 0,0 l/m N 0,00 h 0 W/m 0,8 km/h (0 Bft)
22.12.2015 19:00 5,7 C 92 % 1028,2 hPa 0,0 l/m SW 0,00 h 0 W/m 2,7 km/h (1 Bft)
22.12.2015 20:00 5,2 C 94 % 1027,8 hPa 0,0 l/m SW 0,00 h 0 W/m 2,8 km/h (1 Bft)
22.12.2015 21:00 4,7 C 94 % 1027,5 hPa 0,0 l/m N 0,00 h 0 W/m 0,1 km/h (0 Bft)
22.12.2015 22:00 3,8 C 94 % 1027,2 hPa 0,0 l/m N 0,00 h 0 W/m 0,3 km/h (0 Bft)
22.12.2015 23:00 2,9 C 94 % 1027,1 hPa 0,0 l/m N 0,00 h 0 W/m 0,0 km/h (0 Bft)
23.12.2015 00:00 2,3 C 95 % 1027,0 hPa 0,0 l/m N 0,00 h 0 W/m 0,0 km/h (0 Bft)
23.12.2015 01:00 2,2 C 96 % 1026,9 hPa 0,0 l/m SW 0,00 h 0 W/m 2,0 km/h (1 Bft)
23.12.2015 02:00 1,9 C 96 % 1026,9 hPa 0,0 l/m SW 0,00 h 0 W/m 1,6 km/h (1 Bft)
23.12.2015 03:00 2,2 C 97 % 1027,4 hPa 0,0 l/m SW 0,00 h 0 W/m 3,6 km/h (1 Bft)
23.12.2015 04:00 2,3 C 97 % 1027,9 hPa 0,0 l/m SW 0,00 h 0 W/m 1,7 km/h (1 Bft)
23.12.2015 05:00 1,7 C 97 % 1028,3 hPa 0,0 l/m N 0,00 h 0 W/m 0,0 km/h (0 Bft)
23.12.2015 06:00 1,7 C 97 % 1029,0 hPa 0,0 l/m SW 0,00 h 0 W/m 1,1 km/h (0 Bft)
23.12.2015 07:00 2,6 C 98 % 1029,2 hPa 0,0 l/m S-SW 0,00 h 0 W/m 9,5 km/h (2 Bft)
23.12.2015 08:00 2,7 C 98 % 1029,7 hPa 0,0 l/m S-SW 0,00 h 13 W/m 4,3 km/h (1 Bft)
23.12.2015 09:00 3,0 C 99 % 1030,1 hPa 0,0 l/m S-SW 0,00 h 34 W/m 7,5 km/h (2 Bft)
23.12.2015 10:00 5,1 C 99 % 1030,3 hPa 0,2 l/m S-SW 0,58 h 133 W/m 10,3 km/h (2 Bft)
23.12.2015 11:00 7,9 C 95 % 1030,0 hPa 0,0 l/m SW 0,67 h 200 W/m 16,2 km/h (3 Bft)
23.12.2015 12:00 10,7 C 79 % 1029,5 hPa 0,0 l/m SW 1,00 h 284 W/m 20,4 km/h (4 Bft)
23.12.2015 13:00 11,6 C 73 % 1029,2 hPa 0,0 l/m SW 0,75 h 239 W/m 17,8 km/h (3 Bft)
23.12.2015 14:00 11,4 C 74 % 1029,1 hPa 0,0 l/m SW 0,17 h 99 W/m 14,6 km/h (3 Bft)
23.12.2015 15:00 10,8 C 77 % 1029,4 hPa 0,0 l/m SW 0,00 h 24 W/m 7,2 km/h (2 Bft)
23.12.2015 16:00 9,9 C 81 % 1029,6 hPa 0,0 l/m SW 0,00 h 8 W/m 3,2 km/h (1 Bft)
23.12.2015 17:00 9,0 C 85 % 1029,7 hPa 0,0 l/m SW 0,00 h 0 W/m 4,3 km/h (1 Bft)
23.12.2015 18:00 8,4 C 86 % 1030,0 hPa 0,0 l/m N 0,00 h 0 W/m 0,0 km/h (0 Bft)
23.12.2015 19:00 7,7 C 88 % 1030,0 hPa 0,0 l/m SW 0,00 h 0 W/m 0,7 km/h (0 Bft)
23.12.2015 20:00 7,2 C 90 % 1030,0 hPa 0,0 l/m N 0,00 h 0 W/m 0,0 km/h (0 Bft)
23.12.2015 21:00 6,8 C 92 % 1029,8 hPa 0,0 l/m N 0,00 h 0 W/m 0,0 km/h (0 Bft)
23.12.2015 22:00 6,6 C 92 % 1029,3 hPa 0,0 l/m N 0,00 h 0 W/m 0,0 km/h (0 Bft)
23.12.2015 23:00 6,3 C 93 % 1029,0 hPa 0,0 l/m N 0,00 h 0 W/m 0,0 km/h (0 Bft)
24.12.2015 00:00 5,8 C 93 % 1028,7 hPa 0,0 l/m N 0,00 h 0 W/m 0,0 km/h (0 Bft)
24.12.2015 01:00 5,1 C 93 % 1028,1 hPa 0,0 l/m N 0,00 h 0 W/m 0,0 km/h (0 Bft)
24.12.2015 02:00 3,9 C 93 % 1027,7 hPa 0,0 l/m N 0,00 h 0 W/m 0,0 km/h (0 Bft)
24.12.2015 03:00 3,0 C 94 % 1027,3 hPa 0,0 l/m N 0,00 h 0 W/m 0,0 km/h (0 Bft)
24.12.2015 04:00 2,7 C 95 % 1027,1 hPa 0,0 l/m N 0,00 h 0 W/m 0,0 km/h (0 Bft)
24.12.2015 05:00 1,9 C 95 % 1026,9 hPa 0,0 l/m N 0,00 h 0 W/m 0,0 km/h (0 Bft)
24.12.2015 06:00 1,3 C 95 % 1026,8 hPa 0,0 l/m N 0,00 h 0 W/m 0,0 km/h (0 Bft)
24.12.2015 07:00 0,6 C 95 % 1026,7 hPa 0,0 l/m N 0,00 h 0 W/m 0,0 km/h (0 Bft)
24.12.2015 08:00 0,3 C 96 % 1026,9 hPa 0,0 l/m N 0,08 h 21 W/m 0,0 km/h (0 Bft)
24.12.2015 09:00 1,4 C 97 % 1027,4 hPa 0,0 l/m SW 0,00 h 44 W/m 1,2 km/h (1 Bft)
24.12.2015 10:00 2,3 C 98 % 1027,5 hPa 0,0 l/m SW 0,00 h 76 W/m 0,5 km/h (0 Bft)
24.12.2015 11:00 4,3 C 99 % 1027,1 hPa 0,0 l/m SW 0,33 h 144 W/m 8,2 km/h (2 Bft)
24.12.2015 12:00 6,3 C 94 % 1026,2 hPa 0,0 l/m S 0,42 h 209 W/m 9,7 km/h (2 Bft)
24.12.2015 13:00 8,2 C 84 % 1025,5 hPa 0,0 l/m S-SW 0,75 h 241 W/m 12,9 km/h (3 Bft)
24.12.2015 14:00 8,8 C 81 % 1025,2 hPa 0,0 l/m S-SW 0,92 h 190 W/m 11,2 km/h (2 Bft)
24.12.2015 15:00 8,9 C 81 % 1025,2 hPa 0,0 l/m S-SW 0,50 h 70 W/m 9,0 km/h (2 Bft)
24.12.2015 16:00 7,1 C 84 % 1025,3 hPa 0,0 l/m SW 0,00 h 9 W/m 7,9 km/h (2 Bft)
24.12.2015 17:00 6,1 C 86 % 1026,1 hPa 0,0 l/m SW 0,00 h 0 W/m 8,0 km/h (2 Bft)
24.12.2015 18:00 5,7 C 88 % 1026,9 hPa 0,0 l/m SW 0,00 h 0 W/m 9,9 km/h (2 Bft)
24.12.2015 19:00 5,2 C 91 % 1027,7 hPa 0,0 l/m S-SW 0,00 h 0 W/m 9,5 km/h (2 Bft)
24.12.2015 20:00 4,5 C 92 % 1028,1 hPa 0,0 l/m S-SW 0,00 h 0 W/m 5,2 km/h (1 Bft)
24.12.2015 21:00 4,3 C 93 % 1028,4 hPa 0,0 l/m SW 0,00 h 0 W/m 1,9 km/h (1 Bft)
24.12.2015 22:00 4,3 C 93 % 1028,9 hPa 0,0 l/m S-SW 0,00 h 0 W/m 6,8 km/h (2 Bft)
24.12.2015 23:00 4,0 C 92 % 1029,3 hPa 0,0 l/m S-SW 0,00 h 0 W/m 7,5 km/h (2 Bft)
25.12.2015 00:00 3,6 C 93 % 1029,4 hPa 0,0 l/m S-SW 0,00 h 0 W/m 2,3 km/h (1 Bft)
25.12.2015 01:00 3,6 C 94 % 1029,4 hPa 0,0 l/m S-SW 0,00 h 0 W/m 2,3 km/h (1 Bft)
25.12.2015 02:00 3,2 C 93 % 1029,7 hPa 0,0 l/m S-SW 0,00 h 0 W/m 2,4 km/h (1 Bft)
25.12.2015 03:00 2,7 C 94 % 1030,0 hPa 0,0 l/m N 0,00 h 0 W/m 0,4 km/h (0 Bft)
25.12.2015 04:00 2,3 C 94 % 1030,5 hPa 0,0 l/m N 0,00 h 0 W/m 0,0 km/h (0 Bft)
25.12.2015 05:00 1,8 C 94 % 1030,7 hPa 0,0 l/m S-SW 0,00 h 0 W/m 2,5 km/h (1 Bft)
25.12.2015 06:00 2,1 C 95 % 1031,1 hPa 0,0 l/m S-SW 0,00 h 0 W/m 1,7 km/h (1 Bft)
25.12.2015 07:00 2,3 C 95 % 1031,6 hPa 0,0 l/m S-SW 0,00 h 0 W/m 2,3 km/h (1 Bft)
25.12.2015 08:00 2,7 C 96 % 1031,9 hPa 0,0 l/m S-SW 0,00 h 12 W/m 4,5 km/h (1 Bft)
25.12.2015 09:00 3,5 C 95 % 1032,6 hPa 0,0 l/m S-SW 0,00 h 34 W/m 4,0 km/h (1 Bft)
25.12.2015 10:00 5,3 C 93 % 1032,6 hPa 0,0 l/m S-SW 0,58 h 138 W/m 6,8 km/h (2 Bft)
25.12.2015 11:00 8,1 C 83 % 1032,3 hPa 0,0 l/m S 0,58 h 184 W/m 9,7 km/h (2 Bft)
25.12.2015 12:00 10,5 C 74 % 1031,7 hPa 0,0 l/m S 1,00 h 257 W/m 9,1 km/h (2 Bft)
25.12.2015 13:00 11,8 C 73 % 1030,9 hPa 0,0 l/m SW 1,00 h 259 W/m 13,4 km/h (3 Bft)
25.12.2015 14:00 11,6 C 73 % 1030,7 hPa 0,0 l/m SW 0,92 h 164 W/m 11,6 km/h (2 Bft)
25.12.2015 15:00 10,9 C 75 % 1030,9 hPa 0,0 l/m SW 0,17 h 60 W/m 12,1 km/h (2 Bft)
25.12.2015 16:00 9,3 C 79 % 1031,2 hPa 0,0 l/m SW 0,08 h 10 W/m 11,6 km/h (2 Bft)
25.12.2015 17:00 7,8 C 82 % 1031,8 hPa 0,0 l/m SW 0,00 h 0 W/m 1,6 km/h (1 Bft)
25.12.2015 18:00 6,3 C 86 % 1031,9 hPa 0,0 l/m SW 0,00 h 0 W/m 0,5 km/h (0 Bft)
25.12.2015 19:00 5,4 C 89 % 1032,3 hPa 0,0 l/m SW 0,00 h 0 W/m 4,1 km/h (1 Bft)
25.12.2015 20:00 5,3 C 90 % 1032,5 hPa 0,0 l/m SO 0,00 h 0 W/m 6,8 km/h (2 Bft)
25.12.2015 21:00 4,8 C 90 % 1032,8 hPa 0,0 l/m N 0,00 h 0 W/m 1,1 km/h (0 Bft)
25.12.2015 22:00 3,7 C 90 % 1032,8 hPa 0,0 l/m SO 0,00 h 0 W/m 0,8 km/h (0 Bft)
25.12.2015 23:00 3,0 C 92 % 1032,7 hPa 0,0 l/m SO 0,00 h 0 W/m 0,8 km/h (0 Bft)
26.12.2015 00:00 2,4 C 93 % 1032,5 hPa 0,0 l/m SO 0,00 h 0 W/m 2,3 km/h (1 Bft)
26.12.2015 01:00 2,2 C 94 % 1032,4 hPa 0,0 l/m SO 0,00 h 0 W/m 1,3 km/h (1 Bft)
26.12.2015 02:00 1,5 C 94 % 1032,5 hPa 0,0 l/m N 0,00 h 0 W/m 0,0 km/h (0 Bft)
26.12.2015 03:00 0,7 C 94 % 1032,6 hPa 0,0 l/m N 0,00 h 0 W/m 0,1 km/h (0 Bft)
26.12.2015 04:00 0,3 C 94 % 1032,4 hPa 0,0 l/m N 0,00 h 0 W/m 0,0 km/h (0 Bft)
26.12.2015 05:00 -0,0 C 95 % 1032,4 hPa 0,0 l/m N 0,00 h 0 W/m 0,0 km/h (0 Bft)
26.12.2015 06:00 -0,2 C 96 % 1032,4 hPa 0,0 l/m N 0,00 h 0 W/m 0,0 km/h (0 Bft)
26.12.2015 07:00 -0,5 C 96 % 1032,4 hPa 0,0 l/m N 0,00 h 0 W/m 0,0 km/h (0 Bft)
26.12.2015 08:00 -0,8 C 96 % 1032,5 hPa 0,0 l/m SO 0,00 h 11 W/m 3,1 km/h (1 Bft)
26.12.2015 09:00 -0,3 C 97 % 1032,5 hPa 0,0 l/m N 0,00 h 26 W/m 0,3 km/h (0 Bft)
26.12.2015 10:00 1,7 C 98 % 1032,6 hPa 0,0 l/m S-SO 0,58 h 137 W/m 7,5 km/h (2 Bft)
26.12.2015 11:00 5,2 C 94 % 1032,0 hPa 0,0 l/m S-SW 0,58 h 185 W/m 8,7 km/h (2 Bft)
26.12.2015 12:00 8,8 C 78 % 1031,2 hPa 0,0 l/m S-SW 1,00 h 297 W/m 9,5 km/h (2 Bft)
26.12.2015 13:00 9,7 C 76 % 1030,4 hPa 0,0 l/m S-SW 1,00 h 284 W/m 9,3 km/h (2 Bft)
26.12.2015 14:00 9,5 C 78 % 1030,0 hPa 0,0 l/m S-SW 1,00 h 205 W/m 12,1 km/h (2 Bft)
26.12.2015 15:00 8,4 C 82 % 1029,7 hPa 0,0 l/m SW 0,67 h 76 W/m 11,7 km/h (2 Bft)
26.12.2015 16:00 6,5 C 86 % 1029,9 hPa 0,0 l/m SW 0,08 h 10 W/m 6,1 km/h (2 Bft)
26.12.2015 17:00 5,2 C 89 % 1030,2 hPa 0,0 l/m SW 0,00 h 0 W/m 2,5 km/h (1 Bft)
26.12.2015 18:00 4,3 C 91 % 1030,4 hPa 0,0 l/m SW 0,00 h 0 W/m 1,1 km/h (0 Bft)
26.12.2015 19:00 3,1 C 91 % 1030,6 hPa 0,0 l/m N 0,00 h 0 W/m 0,3 km/h (0 Bft)
26.12.2015 20:00 2,0 C 92 % 1031,0 hPa 0,0 l/m SW 0,00 h 0 W/m 0,4 km/h (0 Bft)
26.12.2015 21:00 1,3 C 94 % 1031,2 hPa 0,0 l/m N 0,00 h 0 W/m 0,7 km/h (0 Bft)
26.12.2015 22:00 0,6 C 94 % 1031,1 hPa 0,0 l/m N 0,00 h 0 W/m 0,0 km/h (0 Bft)
26.12.2015 23:00 0,2 C 95 % 1031,1 hPa 0,0 l/m SW 0,00 h 0 W/m 1,9 km/h (1 Bft)
27.12.2015 00:00 0,6 C 96 % 1031,0 hPa 0,0 l/m SW 0,00 h 0 W/m 2,9 km/h (1 Bft)
27.12.2015 01:00 0,3 C 96 % 1030,9 hPa 0,0 l/m N 0,00 h 0 W/m 0,1 km/h (0 Bft)
27.12.2015 02:00 -0,1 C 96 % 1030,9 hPa 0,0 l/m N 0,00 h 0 W/m 0,0 km/h (0 Bft)
27.12.2015 03:00 -0,6 C 96 % 1030,9 hPa 0,0 l/m N 0,00 h 0 W/m 0,5 km/h (0 Bft)
27.12.2015 04:00 -0,8 C 97 % 1030,7 hPa 0,0 l/m SW 0,00 h 0 W/m 1,3 km/h (1 Bft)
27.12.2015 05:00 -1,2 C 97 % 1030,8 hPa 0,0 l/m N 0,00 h 0 W/m 0,0 km/h (0 Bft)
27.12.2015 06:00 -1,6 C 97 % 1031,1 hPa 0,0 l/m N 0,00 h 0 W/m 0,0 km/h (0 Bft)
27.12.2015 07:00 -1,8 C 97 % 1031,6 hPa 0,0 l/m N 0,00 h 0 W/m 0,0 km/h (0 Bft)
27.12.2015 08:00 -2,0 C 97 % 1032,1 hPa 0,0 l/m N 0,08 h 12 W/m 0,0 km/h (0 Bft)
27.12.2015 09:00 -1,3 C 98 % 1032,5 hPa 0,0 l/m SW 0,00 h 33 W/m 0,8 km/h (0 Bft)
27.12.2015 10:00 0,8 C 98 % 1032,8 hPa 0,2 l/m SW 0,50 h 136 W/m 6,7 km/h (2 Bft)
27.12.2015 11:00 3,0 C 99 % 1032,6 hPa 0,0 l/m S-SW 0,75 h 201 W/m 9,0 km/h (2 Bft)
27.12.2015 12:00 5,8 C 89 % 1032,2 hPa 0,0 l/m S-SW 1,00 h 288 W/m 11,6 km/h (2 Bft)
27.12.2015 13:00 6,9 C 82 % 1032,0 hPa 0,0 l/m S-SW 1,00 h 258 W/m 12,0 km/h (2 Bft)
27.12.2015 14:00 7,1 C 79 % 1031,9 hPa 0,0 l/m S-SW 1,00 h 199 W/m 11,8 km/h (2 Bft)
27.12.2015 15:00 6,6 C 80 % 1032,0 hPa 0,0 l/m S-SW 0,92 h 82 W/m 13,2 km/h (3 Bft)
27.12.2015 16:00 5,2 C 84 % 1032,5 hPa 0,0 l/m S-SW 0,08 h 12 W/m 6,5 km/h (2 Bft)
27.12.2015 17:00 4,1 C 87 % 1033,0 hPa 0,0 l/m S-SW 0,00 h 0 W/m 0,9 km/h (0 Bft)
27.12.2015 18:00 2,6 C 88 % 1033,1 hPa 0,0 l/m N 0,00 h 0 W/m 0,0 km/h (0 Bft)
27.12.2015 19:00 1,3 C 91 % 1033,0 hPa 0,0 l/m N 0,00 h 0 W/m 0,0 km/h (0 Bft)
27.12.2015 20:00 1,0 C 93 % 1033,2 hPa 0,0 l/m N 0,00 h 0 W/m 0,0 km/h (0 Bft)
27.12.2015 21:00 0,5 C 93 % 1032,9 hPa 0,0 l/m N 0,00 h 0 W/m 0,0 km/h (0 Bft)
27.12.2015 22:00 -0,1 C 95 % 1032,8 hPa 0,0 l/m N 0,00 h 0 W/m 0,0 km/h (0 Bft)
27.12.2015 23:00 -0,6 C 94 % 1032,8 hPa 0,0 l/m N 0,00 h 0 W/m 0,3 km/h (0 Bft)
Min-Datum _ 27.12.15 23.12.15 24.12.15 - - - - 21.12.15
_ Min-Zeit 08:25 13:35 14:35 - - - - 00:00
Minimum _ -2,1 C 72 % 1025,0 hPa - - - - 0,0 km/h (0 Bft)
Max-Datum _ 22.12.15 21.12.15 27.12.15 21.12.15 - 25.12.15 24.12.15 22.12.15
_ Max-Zeit 14:35 05:35 20:10 10:05 - 13:30 13:20 13:05
Maximum _ 11,9 C 100 % 1033,3 hPa 0,6 l/m - 0,10 h 397 W/m 27,4 km/h
SW (4 Bft)
Durchschnitt _ 4,6 C 92 % 1029,8 hPa #2,2 l/m SW #25:30 h 112 W/m 5,8 km/h (1 Bft)